DIAP Airport Information

Runway Information
Runway 03 Length 9843 ft width 164 ft
Elevation 21 ft Threshold 0 ft Heading 23
Runway 21 Length 9843 ft Width 164 ft
Elevation 11 ft Threshold 0 ft Heading 203
Airport Frequencies
Type A/G Name RDO Frequency 568 MHZ
Type ACC Name CON Frequency 121.1 MHZ
Type AFIS Name INFO Frequency 129.1 MHZ
Type ATIS Name ATIS Frequency 126.6 MHZ
Type MISC Name VHF/DF Frequency 118.1 MHZ
Type TWR Name TWR Frequency 118.1 MHZ
Airport Navaids
Type VOR-DME Name Abidjan Frequency 114300 KHZ
Type NDB Name Abidjan Frequency 306 KHZ
Type NDB Name Abidjan Felix Houphouet Boigny Frequency 294 KHZ
Airport Weather Information & NOTAM
ADDS - METARS form results

(0009 UTC 28 November 2021)
Data provider http://aviationweather.gov/metar/data/
 
METAR text: DIAP 280000Z 22003KT 170V250 9999 SCT012 28/26 Q1012 NOSIG
Conditions at: DIAP (ABIDJAN/PORT BOU, CI) observed 0000 UTC 28 November 2021
Temperature: 28.0°C (82°F)
Dewpoint: 26.0°C (79°F) [RH = 89%]
Pressure (altimeter): 29.88 inches Hg (1012.0 mb)
Winds: from the SW (220 degrees) at 3 MPH (3 knots; 1.5 m/s)
Visibility: 6 or more miles (10+ km)
Ceiling: at least 12,000 feet AGL
Clouds: scattered clouds at 1200 feet AGL
Weather: no significant weather observed at this time

METAR text: DIAP 272330Z 23007KT 9999 FEW013 28/26 Q1012 RETS NOSIG
Conditions at: DIAP (ABIDJAN/PORT BOU, CI) observed 2330 UTC 27 November 2021
Temperature: 28.0°C (82°F)
Dewpoint: 26.0°C (79°F) [RH = 89%]
Pressure (altimeter): 29.88 inches Hg (1012.0 mb)
Winds: from the SW (230 degrees) at 8 MPH (7 knots; 3.6 m/s)
Visibility: 6 or more miles (10+ km)
Ceiling: at least 12,000 feet AGL
Clouds: few clouds at 1300 feet AGL
Weather: no significant weather observed at this time

Forecast for: DIAP (ABIDJAN/PORT BOU, CI)
Text: TAF DIAP 272322Z 2800/2906 22008KT 8000 FEW013
Forecast period: 0000 UTC 28 November 2021 to 0600 UTC 29 November 2021
Forecast type: FROM: standard forecast or significant change
Winds: from the SW (220 degrees) at 9 MPH (8 knots; 4.1 m/s)
Visibility: 5 miles (8 km)
Ceiling: at least 12,000 feet AGL
Clouds: few clouds at 1300 feet AGL
Weather: no significant weather forecast for this period
Text: PROB40
Forecast period: 0000 to 0300 UTC 28 November 2021
Forecast type: TEMPORARY: The following changes expected for less than half the time period
Visibility: 2.49 miles (4.01 km)
Ceiling: 1100 feet AGL
Clouds: broken clouds at 1100 feet AGL
broken clouds at 4000 feet AGL
Weather: RA  (moderate rain)
Text: TEMPO 2800/2803 4000 RA BKN011 BKN040
Forecast period: 1500 to 1900 UTC 28 November 2021
Forecast type: TEMPORARY: The following changes expected for less than half the time period
Visibility: missing
Ceiling: 1200 feet AGL
Clouds: broken clouds at 1200 feet AGL
few clouds at 2000 feet AGL
Weather: TS  (thunderstorm)